Time;durP1;ratioP1;P1;durP2;ratioP2;P2;SDS_P1;SDS_P2;PMS_P1;PMS_P2;Temp;Humidity;BMP_temperature;BMP_pressure;BME280_temperature;BME280_humidity;BME280_pressure;Samples;Min_cycle;Max_cycle;Signal;HPM_P1;HPM_P2
2021/09/09 00:02:13;;;;;;;10.75;9.65;;;22.30;70.00;;;;;;10417192;28;20550;-49
2021/09/09 00:07:14;;;;;;;11.48;10.30;;;22.30;69.90;;;;;;10417936;28;20021;-53
2021/09/09 00:12:15;;;;;;;10.68;9.68;;;22.20;69.90;;;;;;10416910;28;20037;-48
2021/09/09 00:17:16;;;;;;;11.45;9.85;;;22.30;70.00;;;;;;10416791;28;20032;-52
2021/09/09 00:22:16;;;;;;;11.73;10.52;;;22.30;70.00;;;;;;10420175;28;20371;-47
2021/09/09 00:27:17;;;;;;;11.95;10.18;;;22.30;70.50;;;;;;10432126;28;20485;-50
2021/09/09 00:32:18;;;;;;;13.23;10.52;;;22.20;69.90;;;;;;10416975;28;20485;-47
2021/09/09 00:37:18;;;;;;;11.52;10.32;;;22.20;69.80;;;;;;10416774;28;20080;-51
2021/09/09 00:42:19;;;;;;;11.13;10.02;;;22.20;70.50;;;;;;10416264;28;20046;-48
2021/09/09 00:47:20;;;;;;;13.25;11.02;;;22.20;69.90;;;;;;10416108;28;20026;-52
2021/09/09 00:52:21;;;;;;;11.88;10.68;;;22.20;69.80;;;;;;10415998;28;20030;-47
2021/09/09 00:57:21;;;;;;;11.10;9.68;;;22.20;69.90;;;;;;10415689;28;20125;-53
2021/09/09 01:02:22;;;;;;;11.80;10.68;;;22.20;70.50;;;;;;10414573;28;20037;-47
2021/09/09 01:07:25;;;;;;;11.05;9.82;;;22.20;69.90;;;;;;10415328;28;20053;-53
2021/09/09 01:12:26;;;;;;;11.65;10.45;;;22.20;69.80;;;;;;10414625;28;20424;-49
2021/09/09 01:17:27;;;;;;;11.10;10.02;;;22.20;69.80;;;;;;10415120;28;20037;-53
2021/09/09 01:22:30;;;;;;;11.52;10.43;;;22.20;69.90;;;;;;10417696;28;20025;-47
2021/09/09 01:27:31;;;;;;;10.55;9.45;;;22.20;69.70;;;;;;10414629;28;20033;-53
2021/09/09 01:32:31;;;;;;;11.60;10.40;;;22.20;69.60;;;;;;10414227;28;20041;-47
2021/09/09 01:37:32;;;;;;;10.88;9.77;;;22.20;69.70;;;;;;10413095;28;20044;-47
2021/09/09 01:42:33;;;;;;;10.85;9.80;;;22.20;69.60;;;;;;10413795;28;20042;-47
2021/09/09 01:47:34;;;;;;;11.00;9.80;;;22.10;69.60;;;;;;10414307;28;20029;-49
2021/09/09 01:52:35;;;;;;;10.98;9.88;;;22.10;69.50;;;;;;10412537;28;20036;-52
2021/09/09 01:57:35;;;;;;;11.40;10.23;;;22.10;69.50;;;;;;10413751;28;20438;-49
2021/09/09 02:02:36;;;;;;;11.43;10.25;;;22.10;69.50;;;;;;10413617;28;20038;-48
2021/09/09 02:07:37;;;;;;;10.80;9.75;;;22.10;69.50;;;;;;10411817;28;20670;-48
2021/09/09 02:12:37;;;;;;;9.77;8.65;;;22.10;69.40;;;;;;10413301;28;20116;-47
2021/09/09 02:17:38;;;;;;;10.80;9.70;;;22.10;69.40;;;;;;10413155;28;20072;-47
2021/09/09 02:22:39;;;;;;;10.50;9.45;;;22.10;69.40;;;;;;10413442;28;20116;-49
2021/09/09 02:27:39;;;;;;;11.45;9.57;;;22.10;69.40;;;;;;10411798;28;20084;-47
2021/09/09 02:32:40;;;;;;;10.30;9.23;;;22.10;69.40;;;;;;10412539;28;20112;-48
2021/09/09 02:37:41;;;;;;;11.23;10.13;;;22.10;69.40;;;;;;10412667;28;20156;-52
2021/09/09 02:42:43;;;;;;;10.68;9.57;;;22.10;69.30;;;;;;10412855;28;20536;-48
2021/09/09 02:47:43;;;;;;;10.25;9.25;;;22.10;69.40;;;;;;10415507;28;20061;-48
2021/09/09 02:52:44;;;;;;;10.90;9.80;;;22.00;69.40;;;;;;10420608;28;20029;-48
2021/09/09 02:57:45;;;;;;;9.68;8.75;;;22.10;69.30;;;;;;10420392;28;20064;-47
2021/09/09 03:02:45;;;;;;;10.32;9.30;;;22.10;69.30;;;;;;10418686;28;20494;-51
2021/09/09 03:07:46;;;;;;;10.45;9.35;;;22.00;69.90;;;;;;10420682;28;20026;-48
2021/09/09 03:12:47;;;;;;;10.00;9.00;;;22.00;69.20;;;;;;10419691;28;20029;-48
2021/09/09 03:17:48;;;;;;;11.27;10.15;;;22.00;69.20;;;;;;10419721;28;20486;-48
2021/09/09 03:22:48;;;;;;;9.75;8.75;;;22.00;69.30;;;;;;10420459;28;20406;-47
2021/09/09 03:27:49;;;;;;;11.90;10.27;;;22.00;69.30;;;;;;10419160;28;20151;-48
2021/09/09 03:32:50;;;;;;;10.70;9.20;;;22.00;69.20;;;;;;10418783;28;20385;-48
2021/09/09 03:37:50;;;;;;;10.75;9.75;;;22.00;69.10;;;;;;10417770;28;20393;-48
2021/09/09 03:42:51;;;;;;;11.60;9.88;;;22.00;69.20;;;;;;10418312;28;20069;-48
2021/09/09 03:47:52;;;;;;;10.48;9.43;;;22.00;69.20;;;;;;10418437;28;20021;-47
2021/09/09 03:52:52;;;;;;;10.45;9.35;;;22.00;69.10;;;;;;10416957;28;20037;-47
2021/09/09 03:57:53;;;;;;;10.88;9.77;;;22.00;69.10;;;;;;10417259;28;20068;-48
2021/09/09 04:02:54;;;;;;;10.98;9.88;;;22.00;69.20;;;;;;10417181;28;20079;-46
2021/09/09 04:07:54;;;;;;;11.73;10.52;;;21.90;69.20;;;;;;10418458;28;20455;-49
2021/09/09 04:12:55;;;;;;;10.90;9.80;;;22.00;69.10;;;;;;10418162;28;20029;-47
2021/09/09 04:17:56;;;;;;;11.50;10.27;;;21.90;69.00;;;;;;10416761;28;20079;-48
2021/09/09 04:22:56;;;;;;;11.05;9.95;;;21.90;69.10;;;;;;10419411;28;20057;-48
2021/09/09 04:27:57;;;;;;;10.13;9.13;;;21.90;69.10;;;;;;10416672;28;20398;-49
2021/09/09 04:32:58;;;;;;;10.73;9.70;;;21.90;69.10;;;;;;10417718;28;20040;-48
2021/09/09 04:37:59;;;;;;;9.55;8.65;;;21.90;69.10;;;;;;10417608;28;20072;-47
2021/09/09 04:43:00;;;;;;;11.73;10.48;;;21.90;69.00;;;;;;10405733;28;20408;-49
2021/09/09 04:48:01;;;;;;;10.80;9.32;;;21.90;69.40;;;;;;10416953;28;20501;-49
2021/09/09 04:53:02;;;;;;;12.63;11.05;;;21.90;70.10;;;;;;10416397;28;20033;-47
2021/09/09 04:58:03;;;;;;;11.00;9.85;;;22.00;69.90;;;;;;10429032;28;20462;-55
2021/09/09 05:03:04;;;;;;;17.90;11.60;;;21.90;69.70;;;;;;10415592;28;20029;-47
2021/09/09 05:08:05;;;;;;;13.23;10.70;;;21.90;69.90;;;;;;10416403;28;20080;-47
2021/09/09 05:13:06;;;;;;;14.05;10.50;;;21.90;70.20;;;;;;10415727;28;20041;-47
2021/09/09 05:18:06;;;;;;;14.88;10.85;;;21.90;70.70;;;;;;10415505;28;20108;-46
2021/09/09 05:23:07;;;;;;;13.02;10.57;;;21.90;70.80;;;;;;10412527;28;20390;-46
2021/09/09 05:28:08;;;;;;;16.67;11.48;;;21.90;70.80;;;;;;10415010;28;20367;-47
2021/09/09 05:33:08;;;;;;;14.57;11.10;;;22.00;71.30;;;;;;10430389;28;20120;-48
2021/09/09 05:38:09;;;;;;;13.80;10.30;;;22.00;71.00;;;;;;10414575;28;20037;-49
2021/09/09 05:43:10;;;;;;;17.80;11.43;;;21.90;70.70;;;;;;10414466;28;20043;-50
2021/09/09 05:48:10;;;;;;;15.63;10.23;;;22.00;70.90;;;;;;10413839;28;20119;-51
2021/09/09 05:53:11;;;;;;;19.08;12.13;;;21.90;70.90;;;;;;10412593;28;20029;-51
2021/09/09 05:58:12;;;;;;;16.38;12.65;;;22.00;70.30;;;;;;10414518;28;20037;-45
2021/09/09 06:03:14;;;;;;;17.33;12.15;;;21.90;70.20;;;;;;10414091;28;20041;-48
2021/09/09 06:08:14;;;;;;;20.98;11.93;;;21.90;70.40;;;;;;10413092;28;20026;-45
2021/09/09 06:13:15;;;;;;;21.45;12.45;;;21.90;70.10;;;;;;10413884;28;20033;-48
2021/09/09 06:18:16;;;;;;;18.77;10.77;;;21.90;70.00;;;;;;10407264;28;20128;-49
2021/09/09 06:23:16;;;;;;;19.20;11.77;;;21.90;69.80;;;;;;10424739;28;20405;-52
2021/09/09 06:28:17;;;;;;;19.55;11.80;;;21.90;69.50;;;;;;10420520;28;20025;-47
2021/09/09 06:33:18;;;;;;;19.27;11.30;;;21.90;69.60;;;;;;10418766;28;20033;-49
2021/09/09 06:38:18;;;;;;;18.95;11.13;;;21.90;69.70;;;;;;10418478;28;20189;-48
2021/09/09 06:43:19;;;;;;;13.68;11.10;;;21.90;69.80;;;;;;10418865;28;20091;-50
2021/09/09 06:48:20;;;;;;;13.88;11.23;;;21.90;69.80;;;;;;10421127;28;20075;-47
2021/09/09 06:53:20;;;;;;;15.50;10.63;;;21.90;70.60;;;;;;10419913;28;20125;-53
2021/09/09 06:58:21;;;;;;;14.68;10.55;;;21.90;69.80;;;;;;10419978;28;20112;-48
2021/09/09 07:03:22;;;;;;;17.38;10.82;;;21.90;69.70;;;;;;10419010;28;20076;-52
2021/09/09 07:08:23;;;;;;;15.45;11.27;;;21.90;69.70;;;;;;10421089;28;20049;-47
2021/09/09 07:13:24;;;;;;;16.25;11.13;;;21.90;69.60;;;;;;10420615;28;20085;-52
2021/09/09 07:18:26;;;;;;;13.45;11.23;;;21.90;69.40;;;;;;10422260;28;20106;-47
2021/09/09 07:23:26;;;;;;;15.18;11.23;;;21.90;69.50;;;;;;10421375;28;20497;-52
2021/09/09 07:28:27;;;;;;;15.57;10.68;;;21.80;69.50;;;;;;10420033;28;20030;-47
2021/09/09 07:33:28;;;;;;;13.25;11.48;;;21.80;69.50;;;;;;10419944;28;20108;-53
2021/09/09 07:38:29;;;;;;;13.43;11.50;;;21.80;69.50;;;;;;10419468;28;20048;-47
2021/09/09 07:43:30;;;;;;;15.23;11.68;;;21.80;69.50;;;;;;10419300;28;20131;-48
2021/09/09 07:48:31;;;;;;;14.18;11.98;;;21.80;69.40;;;;;;10434537;28;20036;-48
2021/09/09 07:53:31;;;;;;;15.75;12.38;;;21.80;69.20;;;;;;10401171;28;20064;-51
2021/09/09 07:58:32;;;;;;;13.90;10.73;;;21.80;69.00;;;;;;10419256;28;20087;-49
2021/09/09 08:03:33;;;;;;;14.18;12.68;;;21.80;69.10;;;;;;10433803;28;20120;-53
2021/09/09 08:08:33;;;;;;;12.75;11.45;;;21.80;69.10;;;;;;10418658;28;20056;-48
2021/09/09 08:13:34;;;;;;;11.80;10.38;;;21.90;69.30;;;;;;10419096;28;20493;-50
2021/09/09 08:18:35;;;;;;;13.68;11.18;;;21.90;69.30;;;;;;10421657;28;20033;-48
2021/09/09 08:23:35;;;;;;;12.68;11.38;;;21.90;69.40;;;;;;10417975;28;20029;-50
2021/09/09 08:28:37;;;;;;;10.95;9.45;;;21.90;69.40;;;;;;10417546;28;20501;-47
2021/09/09 08:33:39;;;;;;;14.77;10.40;;;21.90;70.00;;;;;;10417720;28;20079;-53
2021/09/09 08:38:39;;;;;;;12.65;10.70;;;21.90;69.50;;;;;;10417366;28;20029;-49
2021/09/09 08:43:40;;;;;;;11.63;10.07;;;21.90;69.50;;;;;;10416926;28;20105;-50
2021/09/09 08:48:46;;;;;;;15.77;10.35;;;21.90;69.60;;;;;;10429827;28;20033;-48
2021/09/09 08:53:47;;;;;;;12.02;9.85;;;21.90;69.60;;;;;;10417270;28;20072;-49
2021/09/09 08:58:47;;;;;;;12.50;10.60;;;22.00;69.70;;;;;;10416320;28;20572;-49
2021/09/09 09:03:54;;;;;;;11.10;9.98;;;22.00;69.70;;;;;;10416208;28;20052;-48
2021/09/09 09:09:10;;;;;;;11.68;9.45;;;22.00;69.70;;;;;;10416091;28;20474;-49
2021/09/09 09:14:17;;;;;;;11.88;10.55;;;22.00;69.70;;;;;;10415927;28;20025;-49
2021/09/09 09:19:24;;;;;;;10.50;9.10;;;22.00;69.60;;;;;;10420000;28;20038;-49
2021/09/09 09:24:32;;;;;;;10.30;9.15;;;22.00;69.60;;;;;;10415704;28;20029;-49
2021/09/09 09:29:33;;;;;;;12.13;10.77;;;22.00;69.70;;;;;;10415368;28;20028;-49
2021/09/09 09:34:34;;;;;;;10.65;9.50;;;22.00;69.60;;;;;;10415098;28;20039;-49
2021/09/09 09:39:35;;;;;;;11.48;9.82;;;22.00;69.70;;;;;;10415535;28;20484;-52
2021/09/09 09:44:39;;;;;;;13.35;10.30;;;22.00;69.70;;;;;;10414553;28;20493;-48
2021/09/09 09:49:43;;;;;;;12.63;10.00;;;22.00;69.60;;;;;;10415001;28;20021;-51
2021/09/09 09:54:59;;;;;;;10.45;9.43;;;22.00;69.60;;;;;;10414611;28;20025;-47
2021/09/09 09:59:59;;;;;;;12.27;10.98;;;22.10;69.80;;;;;;10413794;28;20112;-48
2021/09/09 10:05:02;;;;;;;10.23;9.23;;;22.10;69.80;;;;;;10414068;28;20112;-47
2021/09/09 10:10:04;;;;;;;10.15;9.07;;;22.10;69.80;;;;;;10414420;28;20045;-48
2021/09/09 10:15:06;;;;;;;10.00;9.00;;;22.10;69.90;;;;;;10414050;28;20504;-48
2021/09/09 10:20:39;;;;;;;10.88;9.77;;;22.10;69.90;;;;;;10427248;28;20083;-49
2021/09/09 10:25:45;;;;;;;12.35;10.80;;;22.20;69.90;;;;;;10413946;28;20057;-51
2021/09/09 10:31:15;;;;;;;11.07;9.98;;;22.20;69.90;;;;;;10413717;28;20017;-48
2021/09/09 10:36:41;;;;;;;9.98;8.82;;;22.20;69.90;;;;;;10414028;28;20037;-48
2021/09/09 10:41:42;;;;;;;8.80;7.90;;;22.20;69.90;;;;;;10413315;28;20102;-53
2021/09/09 10:46:45;;;;;;;12.27;10.18;;;22.20;69.90;;;;;;10426189;28;20105;-47
2021/09/09 10:52:10;;;;;;;11.18;9.98;;;22.30;69.90;;;;;;10413212;28;20030;-48
2021/09/09 10:57:14;;;;;;;10.85;9.30;;;22.30;69.90;;;;;;10413899;28;20033;-47
2021/09/09 11:02:17;;;;;;;10.20;8.88;;;22.30;69.90;;;;;;10413219;28;20362;-48
2021/09/09 11:07:27;;;;;;;9.82;8.82;;;22.40;69.90;;;;;;10395638;28;20033;-48
2021/09/09 11:12:39;;;;;;;9.70;8.70;;;22.40;69.80;;;;;;10419687;28;20068;-49
2021/09/09 11:17:40;;;;;;;11.18;9.75;;;22.40;69.90;;;;;;10420712;28;20033;-48
2021/09/09 11:22:40;;;;;;;10.63;9.52;;;22.40;70.00;;;;;;10424641;28;20478;-47
2021/09/09 11:27:41;;;;;;;11.20;9.18;;;22.50;70.00;;;;;;10420370;28;20025;-52
2021/09/09 11:33:01;;;;;;;9.93;8.90;;;22.50;69.90;;;;;;10420046;28;20026;-47
2021/09/09 11:38:02;;;;;;;10.77;9.68;;;22.40;69.90;;;;;;10419790;28;20040;-47
2021/09/09 11:43:03;;;;;;;9.57;8.57;;;22.50;70.10;;;;;;10418180;28;20379;-47
2021/09/09 11:48:05;;;;;;;9.90;8.95;;;22.50;70.00;;;;;;10432628;28;20033;-47
2021/09/09 11:53:08;;;;;;;10.80;9.57;;;22.50;70.10;;;;;;10419282;28;20385;-48
2021/09/09 11:58:09;;;;;;;10.95;8.75;;;22.40;70.10;;;;;;10419361;28;20103;-47
2021/09/09 12:03:10;;;;;;;10.50;9.40;;;22.50;70.10;;;;;;10417368;28;20485;-49
2021/09/09 12:08:11;;;;;;;9.85;8.88;;;22.50;70.20;;;;;;10400957;28;20037;-47
2021/09/09 12:13:27;;;;;;;10.65;9.55;;;22.50;70.10;;;;;;10418154;28;20033;-47
2021/09/09 12:18:31;;;;;;;9.60;8.70;;;22.50;70.20;;;;;;10420602;28;20052;-50
2021/09/09 12:23:32;;;;;;;10.57;8.88;;;22.60;70.20;;;;;;10416539;28;20061;-50
2021/09/09 12:28:33;;;;;;;12.48;9.88;;;22.60;70.30;;;;;;10417645;28;20416;-48
2021/09/09 12:33:40;;;;;;;10.55;8.88;;;22.60;70.30;;;;;;10417618;28;20025;-52
2021/09/09 12:38:51;;;;;;;10.27;9.27;;;22.60;70.90;;;;;;10417629;28;20030;-49
2021/09/09 12:44:02;;;;;;;12.25;9.05;;;22.60;70.30;;;;;;10417129;28;20117;-48
2021/09/09 12:49:12;;;;;;;10.38;9.27;;;22.60;70.40;;;;;;10415569;28;20095;-48
2021/09/09 12:54:18;;;;;;;11.75;8.93;;;22.60;71.00;;;;;;10417112;28;20028;-49
2021/09/09 12:59:22;;;;;;;12.27;9.25;;;22.60;70.40;;;;;;10432359;28;20069;-51
2021/09/09 13:04:24;;;;;;;10.50;9.20;;;22.60;70.50;;;;;;10416216;28;20642;-47
2021/09/09 13:09:26;;;;;;;9.93;9.02;;;22.70;70.50;;;;;;10416490;28;20025;-51
2021/09/09 13:14:26;;;;;;;9.85;8.40;;;22.70;70.60;;;;;;10414811;28;20551;-47
2021/09/09 13:19:27;;;;;;;10.82;9.82;;;22.70;70.60;;;;;;10419602;28;20034;-52
2021/09/09 13:24:29;;;;;;;10.20;9.30;;;22.70;70.60;;;;;;10416017;28;20554;-49
2021/09/09 13:29:29;;;;;;;10.55;9.05;;;22.70;70.50;;;;;;10415598;28;20112;-50
2021/09/09 13:34:30;;;;;;;12.55;8.90;;;22.70;70.60;;;;;;10415098;28;20116;-47
2021/09/09 13:39:31;;;;;;;11.18;9.98;;;22.70;70.60;;;;;;10413783;28;20482;-49
2021/09/09 13:44:32;;;;;;;10.90;9.65;;;22.70;70.60;;;;;;10414676;28;20568;-48
2021/09/09 13:49:32;;;;;;;10.52;9.38;;;22.70;70.60;;;;;;10414674;28;20037;-53
2021/09/09 13:54:33;;;;;;;11.52;9.20;;;22.70;70.50;;;;;;10414495;28;20053;-47
2021/09/09 13:59:34;;;;;;;10.32;9.27;;;22.70;70.60;;;;;;10414607;28;20057;-52
2021/09/09 14:04:35;;;;;;;10.60;9.48;;;22.70;70.60;;;;;;10414289;28;20733;-47
2021/09/09 14:09:36;;;;;;;10.18;9.15;;;22.70;70.60;;;;;;10414235;28;20036;-52
2021/09/09 14:14:36;;;;;;;10.77;9.70;;;22.70;70.60;;;;;;10414235;28;20040;-49
2021/09/09 14:19:37;;;;;;;10.63;9.52;;;22.60;70.60;;;;;;10418071;28;20032;-49
2021/09/09 14:24:38;;;;;;;10.93;9.85;;;22.60;70.60;;;;;;10414052;28;20091;-49
2021/09/09 14:29:38;;;;;;;10.77;9.68;;;22.60;70.60;;;;;;10414285;28;20034;-49
2021/09/09 14:34:39;;;;;;;10.00;9.00;;;22.70;70.70;;;;;;10413707;28;20040;-52
2021/09/09 14:39:41;;;;;;;10.35;9.30;;;22.70;70.70;;;;;;10413542;28;20481;-49
2021/09/09 14:44:41;;;;;;;10.82;9.73;;;22.60;70.60;;;;;;10417499;28;20056;-49
2021/09/09 14:49:42;;;;;;;11.23;10.13;;;22.60;70.70;;;;;;10421784;28;20024;-50
2021/09/09 14:54:44;;;;;;;10.02;9.07;;;22.60;70.70;;;;;;10421250;28;20060;-48
2021/09/09 14:59:45;;;;;;;9.70;8.70;;;22.60;70.70;;;;;;10421340;28;20040;-51
2021/09/09 15:04:47;;;;;;;10.48;9.48;;;22.60;70.60;;;;;;10420939;28;20039;-46
2021/09/09 15:09:48;;;;;;;9.70;8.70;;;22.60;70.70;;;;;;10420921;28;20025;-50
2021/09/09 15:14:49;;;;;;;10.32;8.63;;;22.60;70.70;;;;;;10420657;28;20513;-47
2021/09/09 15:19:49;;;;;;;10.45;9.30;;;22.60;70.70;;;;;;10424348;28;20061;-53
2021/09/09 15:24:50;;;;;;;9.95;8.85;;;22.60;70.80;;;;;;10420138;28;20450;-48
2021/09/09 15:29:51;;;;;;;9.20;8.32;;;22.60;70.70;;;;;;10418820;28;20466;-51
2021/09/09 15:34:51;;;;;;;10.18;9.18;;;22.60;70.80;;;;;;10411779;28;20124;-47
2021/09/09 15:39:52;;;;;;;12.15;8.95;;;22.60;70.80;;;;;;10419782;28;20510;-47
2021/09/09 15:44:53;;;;;;;9.75;8.85;;;22.60;71.20;;;;;;10419224;28;20045;-49
2021/09/09 15:49:53;;;;;;;9.52;8.55;;;22.60;71.20;;;;;;10419305;28;20539;-47
2021/09/09 15:54:54;;;;;;;10.10;8.68;;;22.60;71.50;;;;;;10405616;28;20061;-47
2021/09/09 15:59:55;;;;;;;11.07;9.68;;;22.60;71.50;;;;;;10418983;28;20100;-46
2021/09/09 16:04:56;;;;;;;11.40;9.98;;;22.70;71.90;;;;;;10417555;28;20467;-46
2021/09/09 16:09:56;;;;;;;11.55;9.93;;;22.60;72.20;;;;;;10418782;28;20029;-46
2021/09/09 16:14:58;;;;;;;10.48;8.80;;;22.60;72.40;;;;;;10413784;28;20107;-46
2021/09/09 16:19:59;;;;;;;12.35;9.43;;;22.70;72.50;;;;;;10422407;28;20100;-48
2021/09/09 16:25:00;;;;;;;14.07;10.93;;;22.70;72.40;;;;;;10415033;28;20511;-45
2021/09/09 16:30:00;;;;;;;14.10;11.45;;;22.70;74.40;;;;;;10417645;28;20038;-47
2021/09/09 16:35:01;;;;;;;24.30;10.93;;;22.70;75.60;;;;;;10417952;28;20041;-47
2021/09/09 16:40:04;;;;;;;19.58;11.38;;;22.70;75.00;;;;;;10416446;28;20036;-48
2021/09/09 16:45:05;;;;;;;15.02;10.25;;;22.70;74.90;;;;;;10417003;28;20048;-46
2021/09/09 16:50:07;;;;;;;14.07;10.52;;;22.70;73.00;;;;;;10416970;28;20079;-50
2021/09/09 16:55:08;;;;;;;20.92;11.60;;;22.70;72.80;;;;;;10416945;28;20120;-47
2021/09/09 17:00:15;;;;;;;13.57;9.77;;;22.70;74.20;;;;;;10416809;28;20472;-46
2021/09/09 17:05:17;;;;;;;14.45;9.80;;;22.70;73.30;;;;;;10412604;28;20041;-48
2021/09/09 17:10:19;;;;;;;11.10;8.43;;;22.90;73.60;;;;;;10416528;28;20040;-47
2021/09/09 17:15:20;;;;;;;13.10;8.70;;;22.80;72.80;;;;;;10416019;28;20033;-47
2021/09/09 17:20:21;;;;;;;9.57;8.57;;;22.80;72.70;;;;;;10418375;28;20021;-47
2021/09/09 17:25:24;;;;;;;11.77;8.65;;;22.70;72.70;;;;;;10414349;28;20034;-47
2021/09/09 17:30:25;;;;;;;10.55;8.35;;;22.70;72.70;;;;;;10415418;28;20096;-47
2021/09/09 17:35:26;;;;;;;10.75;9.57;;;22.70;72.70;;;;;;10414922;28;20021;-49
2021/09/09 17:40:26;;;;;;;14.40;9.02;;;22.70;72.70;;;;;;10414292;28;20043;-47
2021/09/09 17:45:27;;;;;;;9.35;8.20;;;22.70;72.50;;;;;;10413182;28;20124;-51
2021/09/09 17:50:28;;;;;;;9.57;8.50;;;22.70;72.50;;;;;;10412053;28;20069;-46
2021/09/09 17:55:31;;;;;;;12.63;9.00;;;22.70;72.50;;;;;;10414619;28;20103;-48
2021/09/09 18:00:31;;;;;;;9.35;8.43;;;22.70;72.50;;;;;;10414790;28;20470;-46
2021/09/09 18:05:32;;;;;;;9.30;8.40;;;22.70;72.50;;;;;;10412043;28;20022;-56
2021/09/09 18:10:33;;;;;;;9.07;7.80;;;22.70;72.50;;;;;;10413529;28;20029;-57
2021/09/09 18:15:34;;;;;;;9.38;8.35;;;22.70;72.50;;;;;;10413254;28;20030;-57
2021/09/09 18:20:35;;;;;;;9.30;8.40;;;22.70;72.50;;;;;;10414110;28;20045;-57
2021/09/09 18:25:35;;;;;;;12.18;8.25;;;22.70;72.50;;;;;;10411655;28;20033;-57
2021/09/09 18:30:36;;;;;;;10.13;8.25;;;22.70;73.10;;;;;;10412616;28;20040;-54
2021/09/09 18:35:37;;;;;;;10.30;9.07;;;22.70;72.70;;;;;;10412940;28;20104;-52
2021/09/09 18:40:38;;;;;;;9.75;8.63;;;22.70;72.50;;;;;;10411516;28;20140;-54
2021/09/09 18:45:38;;;;;;;9.65;8.10;;;22.60;72.50;;;;;;10412535;28;20072;-55
2021/09/09 18:50:39;;;;;;;9.88;8.77;;;22.70;73.60;;;;;;10411768;28;20343;-54
2021/09/09 18:55:40;;;;;;;10.23;8.70;;;22.70;74.40;;;;;;10411118;28;20450;-54
2021/09/09 19:00:41;;;;;;;13.48;8.35;;;22.70;75.50;;;;;;10412050;28;20038;-52
2021/09/09 19:05:41;;;;;;;12.77;9.00;;;22.70;74.70;;;;;;10412506;28;20551;-54
2021/09/09 19:10:42;;;;;;;10.73;9.18;;;22.70;75.00;;;;;;10413251;28;20112;-51
2021/09/09 19:15:43;;;;;;;9.95;8.25;;;22.70;74.90;;;;;;10411814;28;20033;-55
2021/09/09 19:20:43;;;;;;;8.70;7.85;;;22.70;75.00;;;;;;10410438;28;20505;-55
2021/09/09 19:25:44;;;;;;;9.25;8.20;;;22.70;73.40;;;;;;10408968;28;20112;-55
2021/09/09 19:30:45;;;;;;;9.23;7.55;;;22.70;73.10;;;;;;10414389;28;20072;-55
2021/09/09 19:35:46;;;;;;;11.80;8.63;;;22.70;73.20;;;;;;10418963;28;20056;-57
2021/09/09 19:40:48;;;;;;;10.00;7.72;;;22.70;73.40;;;;;;10418737;28;20042;-57
2021/09/09 19:45:49;;;;;;;9.82;7.50;;;22.70;73.30;;;;;;10421102;28;20091;-57
2021/09/09 19:50:50;;;;;;;10.95;7.68;;;22.70;73.20;;;;;;10405710;28;20096;-56
2021/09/09 19:55:50;;;;;;;10.82;8.10;;;22.70;73.20;;;;;;10417748;28;20066;-54
2021/09/09 20:00:51;;;;;;;9.00;8.00;;;22.70;73.20;;;;;;10416702;28;20033;-56
2021/09/09 20:05:51;;;;;;;8.45;7.57;;;22.70;73.10;;;;;;10416744;28;20065;-57
2021/09/09 20:10:52;;;;;;;11.63;7.88;;;22.70;73.10;;;;;;10415572;28;20065;-56
2021/09/09 20:15:54;;;;;;;9.55;8.05;;;22.70;73.00;;;;;;10417493;28;20027;-57
2021/09/09 20:20:55;;;;;;;8.50;7.10;;;22.70;73.00;;;;;;10418761;28;20029;-57
2021/09/09 20:25:55;;;;;;;7.95;7.15;;;22.70;73.00;;;;;;10416731;28;20030;-56
2021/09/09 20:30:57;;;;;;;8.52;7.65;;;22.70;73.00;;;;;;10418181;28;20118;-56
2021/09/09 20:35:58;;;;;;;8.45;7.65;;;22.60;72.90;;;;;;10418008;28;20394;-57
2021/09/09 20:40:59;;;;;;;8.27;7.55;;;22.70;72.90;;;;;;10416891;28;20050;-59
2021/09/09 20:46:00;;;;;;;9.10;7.97;;;22.60;72.80;;;;;;10416068;28;20068;-57
2021/09/09 20:51:01;;;;;;;8.15;7.35;;;22.70;73.00;;;;;;10417553;28;20047;-56
2021/09/09 20:56:02;;;;;;;8.75;7.85;;;22.60;72.80;;;;;;10417066;28;20061;-57
2021/09/09 21:01:06;;;;;;;11.40;7.57;;;22.70;72.90;;;;;;10416980;28;20029;-57
2021/09/09 21:06:07;;;;;;;8.07;7.28;;;22.60;72.80;;;;;;10416800;28;20432;-57
2021/09/09 21:11:07;;;;;;;11.30;8.77;;;22.60;72.90;;;;;;10416644;28;20061;-56
2021/09/09 21:16:08;;;;;;;9.13;8.23;;;22.60;72.90;;;;;;10416401;28;20940;-57
2021/09/09 21:21:08;;;;;;;8.93;7.88;;;22.60;72.80;;;;;;10423111;28;20045;-56
2021/09/09 21:26:09;;;;;;;9.20;8.23;;;22.60;72.80;;;;;;10416230;28;20534;-56
2021/09/09 21:31:10;;;;;;;8.85;7.95;;;22.60;72.80;;;;;;10415925;28;20157;-57
2021/09/09 21:36:10;;;;;;;8.35;7.10;;;22.60;72.80;;;;;;10415523;28;20046;-56
2021/09/09 21:41:11;;;;;;;8.85;7.35;;;22.60;72.80;;;;;;10415410;28;20498;-56
2021/09/09 21:46:12;;;;;;;8.32;7.53;;;22.60;72.80;;;;;;10413926;28;20437;-56
2021/09/09 21:51:13;;;;;;;9.07;8.13;;;22.60;72.80;;;;;;10414869;28;20477;-56
2021/09/09 21:56:15;;;;;;;9.68;8.50;;;22.60;72.80;;;;;;10415027;28;20035;-55
2021/09/09 22:01:16;;;;;;;8.68;7.88;;;22.60;73.00;;;;;;10414855;28;20040;-57
2021/09/09 22:06:17;;;;;;;10.18;8.00;;;22.60;72.90;;;;;;10414700;28;20034;-57
2021/09/09 22:11:18;;;;;;;9.00;8.10;;;22.60;72.90;;;;;;10414512;28;20060;-57
2021/09/09 22:16:19;;;;;;;9.30;8.40;;;22.60;72.90;;;;;;10414420;28;20371;-57
2021/09/09 22:21:20;;;;;;;8.10;7.25;;;22.60;72.90;;;;;;10414517;28;20025;-57
2021/09/09 22:26:21;;;;;;;8.50;7.70;;;22.60;72.80;;;;;;10414143;28;20533;-57
2021/09/09 22:31:22;;;;;;;8.52;7.65;;;22.60;72.90;;;;;;10414348;28;20040;-57
2021/09/09 22:36:22;;;;;;;8.60;7.80;;;22.60;72.90;;;;;;10414124;28;20060;-57
2021/09/09 22:41:23;;;;;;;8.50;7.60;;;22.60;72.90;;;;;;10413740;28;20055;-57
2021/09/09 22:46:24;;;;;;;9.23;8.15;;;22.60;72.90;;;;;;10413725;28;20460;-57
2021/09/09 22:51:24;;;;;;;8.65;7.95;;;22.60;72.90;;;;;;10412282;28;20021;-56
2021/09/09 22:56:26;;;;;;;9.65;7.88;;;22.60;72.90;;;;;;10413710;28;20030;-57
2021/09/09 23:01:27;;;;;;;9.07;8.05;;;22.60;73.00;;;;;;10413854;28;20061;-57
2021/09/09 23:06:27;;;;;;;9.63;8.10;;;22.60;72.90;;;;;;10418343;28;20039;-58
2021/09/09 23:11:28;;;;;;;8.98;8.18;;;22.60;72.90;;;;;;10421258;28;20036;-57
2021/09/09 23:16:29;;;;;;;8.43;7.57;;;22.60;72.90;;;;;;10421192;28;20033;-57
2021/09/09 23:21:29;;;;;;;8.68;7.72;;;22.50;72.90;;;;;;10426317;28;20040;-57
2021/09/09 23:26:30;;;;;;;9.13;8.18;;;22.50;72.80;;;;;;10420588;28;20120;-56
2021/09/09 23:31:33;;;;;;;9.52;8.52;;;22.50;72.80;;;;;;10420565;28;20347;-57
2021/09/09 23:36:34;;;;;;;9.52;8.45;;;22.60;73.00;;;;;;10420561;28;20033;-57
2021/09/09 23:41:35;;;;;;;9.85;8.95;;;22.60;73.00;;;;;;10419865;28;20103;-57
2021/09/09 23:46:35;;;;;;;9.65;8.13;;;22.50;73.00;;;;;;10419920;28;20116;-57
2021/09/09 23:51:36;;;;;;;10.02;9.10;;;22.60;73.00;;;;;;10418993;28;20017;-57
2021/09/09 23:56:37;;;;;;;10.05;9.15;;;22.50;73.00;;;;;;10419605;28;20117;-57
